»·PEaware :: AAL394 KDFW-KTUL

AAL394 :: KDFW-KTUL

FLIGHT INFORMATION

Flight Status: Arrived
Operator:
American Airlines
More flights by this operator :: More flights under this callsign
Pilot: John H. (7647)
Aircraft: BOEING 737-800
(B738)
More flights by this aircraft type
Origin: KDFW Dallas-Ft Worth Intl
United States
Destination: KTUL Tulsa Intl
United States
More flights between these airports :: More routes between these airports
Route: GRABE8 EAKER TUL
File this flight plan on PilotEdge
Remarks: PBN / A1B1C1D1S1S2 DOF / 180926 REG / N806SB EET / KZKC0034 OPR / AAL PER / C RMK / TCAS SIMBRIEF
Altitude:
(Current/Filed)
27,000ft
Speed:
(Current/Filed)
463kts
Departed: 26-Sep-18 01:14 PM
Arrived: 26-Sep-18 01:57 PM
Distance/Time
Traveled:
206nm/0:43
Distance/Time
To Go:
Arrived

Flight Plot

Page will automatically refresh every two minutes.

Flight plan parsing failed; only flown route is shown


Map Options




Map Legend


Flown Route
Filed Route
Departure Airport
Arrival Airport
Navaid (VOR, NDB)
Fix

Horizontal Profiles

Position Reports

Time Latitude Longitude Heading Altitude Ground
Speed
26-Sep-18 12:59 32.900051 -97.045737 150 603ft 0kts
26-Sep-18 13:00 32.900051 -97.045737 150 603ft 0kts
26-Sep-18 13:01 32.900051 -97.045737 150 603ft 0kts
26-Sep-18 13:02 32.900051 -97.045737 150 603ft 0kts
26-Sep-18 13:03 32.900083 -97.045758 149 603ft 2kts
26-Sep-18 13:04 32.900637 -97.045835 215 603ft 2kts
26-Sep-18 13:05 32.900811 -97.045385 270 602ft 1kts
26-Sep-18 13:06 32.900811 -97.045379 270 602ft 0kts
26-Sep-18 13:07 32.900811 -97.045379 270 602ft 0kts
26-Sep-18 13:08 32.900811 -97.045523 269 602ft 0kts
26-Sep-18 13:09 32.900798 -97.045887 266 603ft 2kts
26-Sep-18 13:10 32.901157 -97.048360 269 608ft 12kts
26-Sep-18 13:11 32.895655 -97.048851 180 600ft 32kts
26-Sep-18 13:12 32.886042 -97.048982 183 577ft 26kts
26-Sep-18 13:13 32.885085 -97.040947 93 567ft 29kts
26-Sep-18 13:14 32.884052 -97.032007 177 570ft 26kts
26-Sep-18 13:15 32.879571 -97.030128 9 564ft 15kts
26-Sep-18 13:16 32.899211 -97.030077 3 682ft 155kts
26-Sep-18 13:17 32.943820 -97.030622 5 2767ft 162kts
26-Sep-18 13:18 32.985340 -97.028952 5 4703ft 149kts
26-Sep-18 13:19 33.032422 -97.026842 4 5454ft 206kts
26-Sep-18 13:20 33.090611 -97.023775 9 6309ft 238kts
26-Sep-18 13:21 33.150566 -97.013323 10 7592ft 246kts
26-Sep-18 13:22 33.223364 -97.000795 11 9559ft 282kts
26-Sep-18 13:23 33.308061 -96.986232 9 10952ft 334kts
26-Sep-18 13:24 33.399395 -96.970665 7 13161ft 349kts
26-Sep-18 13:25 33.486502 -96.949731 17 15107ft 361kts
26-Sep-18 13:26 33.582887 -96.911354 17 17076ft 374kts
26-Sep-18 13:27 33.680729 -96.872637 16 18920ft 385kts
26-Sep-18 13:28 33.780700 -96.833145 16 20598ft 396kts
26-Sep-18 13:29 33.885055 -96.791907 16 22313ft 403kts
26-Sep-18 13:30 33.991749 -96.749656 16 23827ft 412kts
26-Sep-18 13:31 34.099646 -96.706842 16 25192ft 421kts
26-Sep-18 13:32 34.204012 -96.665333 16 26381ft 428kts
26-Sep-18 13:33 34.317565 -96.620076 16 27188ft 441kts
26-Sep-18 13:34 34.430256 -96.556920 17 27128ft 463kts
26-Sep-18 13:35 34.553129 -96.504484 17 27129ft 475kts
26-Sep-18 13:36 34.677090 -96.451452 17 27131ft 473kts
26-Sep-18 13:37 34.800117 -96.398662 17 27132ft 472kts
26-Sep-18 13:38 34.919470 -96.347287 18 26823ft 473kts
26-Sep-18 13:39 35.039472 -96.295544 18 24001ft 460kts
26-Sep-18 13:40 35.152496 -96.246658 18 21325ft 446kts
26-Sep-18 13:41 35.261360 -96.199373 18 18794ft 420kts
26-Sep-18 13:42 35.367859 -96.153053 19 16211ft 412kts
26-Sep-18 13:43 35.471378 -96.107896 19 13717ft 380kts
26-Sep-18 13:44 35.569046 -96.065159 19 11727ft 360kts
26-Sep-18 13:45 35.654230 -96.027797 20 11103ft 299kts
26-Sep-18 13:46 35.731181 -95.993973 20 10503ft 298kts
26-Sep-18 13:47 35.808529 -95.959915 20 9918ft 294kts
26-Sep-18 13:48 35.885636 -95.925908 21 8700ft 298kts
26-Sep-18 13:49 35.960867 -95.892668 21 7533ft 279kts
26-Sep-18 13:50 36.039239 -95.883857 356 4472ft 313kts
26-Sep-18 13:51 36.121656 -95.890685 5 2040ft 296kts
26-Sep-18 13:52 36.198984 -95.882389 4 798ft 244kts
26-Sep-18 13:53 36.232309 -95.854106 95 2541ft 166kts
26-Sep-18 13:54 36.212059 -95.809813 179 2814ft 181kts
26-Sep-18 13:55 36.156846 -95.810909 176 2604ft 208kts
26-Sep-18 13:56 36.106108 -95.827696 254 2749ft 201kts
26-Sep-18 13:57 36.120976 -95.878035 337 2231ft 182kts
26-Sep-18 13:58 36.160254 -95.884945 7 1007ft 136kts
26-Sep-18 13:59 36.195258 -95.881926 198 643ft 3kts

Navigation Log

Ident Type
Flight plan parsing failed, navigation log unavailable